This is the latest recevied weather packets stored in our database for station/object R2AJV-13. If no packets are shown the sender has not sent any weather packets the latest 10 day(s).
| Time | Temp. | Humidity | Pressure | Rain* | Wind** | Luminosity | Snow |
|---|---|---|---|---|---|---|---|
| 1787399118 | 22.78° C | 61% | 1000.8 hPa | 0 mm | - | - | - |
| 1787398273 | 23.89° C | 57% | 1000.7 hPa | 0 mm | - | - | - |
| 1787397362 | 23.33° C | 57% | 1000.9 hPa | 0 mm | - | - | - |
| 1787396450 | 23.89° C | 59% | 1001.1 hPa | 0 mm | - | - | - |
| 1787395541 | 24.44° C | 56% | 1001.2 hPa | 0 mm | - | - | - |
| 1787394636 | 22.78° C | 61% | 1001.3 hPa | 0 mm | - | - | - |
| 1787393725 | 23.33° C | 60% | 1001.3 hPa | 0 mm | - | - | - |
| 1787392875 | 22.78° C | 60% | 1001.7 hPa | 0 mm | - | - | - |
| 1787391964 | 21.11° C | 69% | 1001.8 hPa | 0 mm | - | - | - |
| 1787391053 | 22.22° C | 64% | 1002.1 hPa | 0 mm | - | - | - |
| 1787390148 | 22.78° C | 61% | 1002.1 hPa | 0 mm | - | - | - |
| 1787389265 | 21.67° C | 66% | 1002.2 hPa | 0 mm | - | - | - |
| 1787387449 | 21.67° C | 67% | 1002.3 hPa | 0 mm | - | - | - |
| 1787386539 | 21.11° C | 67% | 1002.3 hPa | 0 mm | - | - | - |
| 1787385628 | 21.67° C | 66% | 1002.2 hPa | 0 mm | - | - | - |
| 1787384718 | 21.11° C | 67% | 1002.1 hPa | 0 mm | - | - | - |
| 1787383873 | 21.11° C | 67% | 1002.2 hPa | 0 mm | - | - | - |
| 1787382962 | 20.56° C | 69% | 1002.2 hPa | 0 mm | - | - | - |
| 1787382051 | 20.56° C | 71% | 1002 hPa | 0 mm | - | - | - |
| 1787381141 | 19.44° C | 74% | 1002.1 hPa | 0 mm | - | - | - |
| 1787380236 | 19.44° C | 76% | 1001.9 hPa | 0 mm | - | - | - |
| 1787379325 | 19.44° C | 76% | 1002.1 hPa | 0 mm | - | - | - |
| 1787378474 | 18.89° C | 79% | 1002.2 hPa | 0 mm | - | - | - |
| 1787377564 | 17.78° C | 82% | 1002 hPa | 0 mm | - | - | - |
| 1787376653 | 17.22° C | 84% | 1002.1 hPa | 0 mm | - | - | - |
* Rain latest hour (hover to see other rain measurements)
** Current wind speed in m/s (hover to see current wind gust speed)